sensor_id;sensor_type;location;lat;lon;timestamp;temperature;humidity
2212;DHT22;48849;48.758;9.158;2022-10-23T00:00:38;16.00;99.90
2212;DHT22;48849;48.758;9.158;2022-10-23T00:03:05;16.00;99.90
2212;DHT22;48849;48.758;9.158;2022-10-23T00:05:32;16.90;99.90
2212;DHT22;48849;48.758;9.158;2022-10-23T00:08:00;15.90;99.90
2212;DHT22;48849;48.758;9.158;2022-10-23T00:12:54;15.80;99.90
2212;DHT22;48849;48.758;9.158;2022-10-23T00:15:21;15.90;99.90
2212;DHT22;48849;48.758;9.158;2022-10-23T00:17:49;15.80;99.90
2212;DHT22;48849;48.758;9.158;2022-10-23T00:20:16;16.30;99.90
2212;DHT22;48849;48.758;9.158;2022-10-23T00:22:43;15.80;99.90
2212;DHT22;48849;48.758;9.158;2022-10-23T00:25:11;18.10;99.90
2212;DHT22;48849;48.758;9.158;2022-10-23T00:27:38;15.80;99.90
2212;DHT22;48849;48.758;9.158;2022-10-23T00:30:05;15.80;99.90
2212;DHT22;48849;48.758;9.158;2022-10-23T00:32:32;15.60;99.90
2212;DHT22;48849;48.758;9.158;2022-10-23T00:34:59;15.70;99.90
2212;DHT22;48849;48.758;9.158;2022-10-23T00:37:26;15.80;99.90
2212;DHT22;48849;48.758;9.158;2022-10-23T00:39:53;15.70;99.90
2212;DHT22;48849;48.758;9.158;2022-10-23T00:42:21;15.70;99.90
2212;DHT22;48849;48.758;9.158;2022-10-23T00:45:11;16.40;99.90
2212;DHT22;48849;48.758;9.158;2022-10-23T00:47:38;15.60;99.90
2212;DHT22;48849;48.758;9.158;2022-10-23T00:50:05;15.60;99.90
2212;DHT22;48849;48.758;9.158;2022-10-23T00:52:34;15.60;99.90
2212;DHT22;48849;48.758;9.158;2022-10-23T00:55:03;15.60;99.90
2212;DHT22;48849;48.758;9.158;2022-10-23T00:57:31;15.50;99.90
2212;DHT22;48849;48.758;9.158;2022-10-23T00:59:58;17.10;99.90
2212;DHT22;48849;48.758;9.158;2022-10-23T01:02:25;15.50;99.90
2212;DHT22;48849;48.758;9.158;2022-10-23T01:04:52;15.50;99.90
2212;DHT22;48849;48.758;9.158;2022-10-23T01:07:22;15.50;99.90
2212;DHT22;48849;48.758;9.158;2022-10-23T01:09:54;15.50;99.90
2212;DHT22;48849;48.758;9.158;2022-10-23T01:12:27;15.90;99.90
2212;DHT22;48849;48.758;9.158;2022-10-23T01:15:05;15.50;99.90
2212;DHT22;48849;48.758;9.158;2022-10-23T01:17:35;15.40;99.90
2212;DHT22;48849;48.758;9.158;2022-10-23T01:20:13;17.00;99.90
2212;DHT22;48849;48.758;9.158;2022-10-23T01:22:58;15.40;99.90
2212;DHT22;48849;48.758;9.158;2022-10-23T01:25:34;15.40;99.90
2212;DHT22;48849;48.758;9.158;2022-10-23T01:28:10;15.30;99.90
2212;DHT22;48849;48.758;9.158;2022-10-23T01:30:42;17.50;99.90
2212;DHT22;48849;48.758;9.158;2022-10-23T01:33:13;15.40;99.90
2212;DHT22;48849;48.758;9.158;2022-10-23T01:35:46;16.50;99.90
2212;DHT22;48849;48.758;9.158;2022-10-23T01:38:18;16.90;99.90
2212;DHT22;48849;48.758;9.158;2022-10-23T01:40:51;15.30;99.90
2212;DHT22;48849;48.758;9.158;2022-10-23T01:43:23;16.50;99.90
2212;DHT22;48849;48.758;9.158;2022-10-23T01:45:55;15.30;99.90
2212;DHT22;48849;48.758;9.158;2022-10-23T01:48:26;15.60;99.90
2212;DHT22;48849;48.758;9.158;2022-10-23T01:50:55;15.30;99.90
2212;DHT22;48849;48.758;9.158;2022-10-23T01:53:25;17.20;99.90
2212;DHT22;48849;48.758;9.158;2022-10-23T01:55:55;17.00;99.90
2212;DHT22;48849;48.758;9.158;2022-10-23T01:58:25;17.30;99.90
2212;DHT22;48849;48.758;9.158;2022-10-23T02:00:55;15.30;99.90
2212;DHT22;48849;48.758;9.158;2022-10-23T02:03:25;15.30;99.90
2212;DHT22;48849;48.758;9.158;2022-10-23T02:05:53;15.40;99.90
2212;DHT22;48849;48.758;9.158;2022-10-23T02:08:20;15.40;99.90
2212;DHT22;48849;48.758;9.158;2022-10-23T02:10:49;17.40;99.90
2212;DHT22;48849;48.758;9.158;2022-10-23T02:13:21;15.40;99.90
2212;DHT22;48849;48.758;9.158;2022-10-23T02:15:57;15.40;99.90
2212;DHT22;48849;48.758;9.158;2022-10-23T02:18:33;15.40;99.90
2212;DHT22;48849;48.758;9.158;2022-10-23T02:21:06;15.40;99.90
2212;DHT22;48849;48.758;9.158;2022-10-23T02:23:35;16.40;99.90
2212;DHT22;48849;48.758;9.158;2022-10-23T02:26:10;15.30;99.90
2212;DHT22;48849;48.758;9.158;2022-10-23T02:28:44;15.30;99.90
2212;DHT22;48849;48.758;9.158;2022-10-23T02:31:16;16.50;99.90
2212;DHT22;48849;48.758;9.158;2022-10-23T02:33:45;15.40;99.90
2212;DHT22;48849;48.758;9.158;2022-10-23T02:36:12;15.90;99.90
2212;DHT22;48849;48.758;9.158;2022-10-23T02:38:41;16.90;99.90
2212;DHT22;48849;48.758;9.158;2022-10-23T02:41:32;15.90;99.90
2212;DHT22;48849;48.758;9.158;2022-10-23T02:44:18;15.30;99.90
2212;DHT22;48849;48.758;9.158;2022-10-23T02:46:57;15.30;99.90
2212;DHT22;48849;48.758;9.158;2022-10-23T02:49:32;15.20;99.90
2212;DHT22;48849;48.758;9.158;2022-10-23T02:52:06;17.10;99.90
2212;DHT22;48849;48.758;9.158;2022-10-23T02:54:45;15.60;99.90
2212;DHT22;48849;48.758;9.158;2022-10-23T02:57:20;15.20;99.90
2212;DHT22;48849;48.758;9.158;2022-10-23T02:59:52;15.20;99.90
2212;DHT22;48849;48.758;9.158;2022-10-23T03:02:25;16.90;99.90
2212;DHT22;48849;48.758;9.158;2022-10-23T03:04:55;15.10;99.90
2212;DHT22;48849;48.758;9.158;2022-10-23T03:07:21;15.10;99.90
2212;DHT22;48849;48.758;9.158;2022-10-23T03:09:51;15.40;99.90
2212;DHT22;48849;48.758;9.158;2022-10-23T03:14:45;15.10;99.90
2212;DHT22;48849;48.758;9.158;2022-10-23T03:17:11;15.60;99.90
2212;DHT22;48849;48.758;9.158;2022-10-23T03:19:39;15.10;99.90
2212;DHT22;48849;48.758;9.158;2022-10-23T03:22:06;16.60;99.90
2212;DHT22;48849;48.758;9.158;2022-10-23T03:24:33;15.10;99.90
2212;DHT22;48849;48.758;9.158;2022-10-23T03:26:59;15.30;99.90
2212;DHT22;48849;48.758;9.158;2022-10-23T03:29:26;17.40;99.90
2212;DHT22;48849;48.758;9.158;2022-10-23T03:31:53;15.10;99.90
2212;DHT22;48849;48.758;9.158;2022-10-23T03:34:20;15.10;99.90
2212;DHT22;48849;48.758;9.158;2022-10-23T03:36:49;15.20;99.90
2212;DHT22;48849;48.758;9.158;2022-10-23T03:39:16;15.20;99.90
2212;DHT22;48849;48.758;9.158;2022-10-23T03:41:42;15.10;99.90
2212;DHT22;48849;48.758;9.158;2022-10-23T03:44:09;17.00;99.90
2212;DHT22;48849;48.758;9.158;2022-10-23T03:46:36;17.30;99.90
2212;DHT22;48849;48.758;9.158;2022-10-23T03:49:03;15.00;99.90
2212;DHT22;48849;48.758;9.158;2022-10-23T03:51:30;15.00;99.90
2212;DHT22;48849;48.758;9.158;2022-10-23T03:53:58;15.90;99.90
2212;DHT22;48849;48.758;9.158;2022-10-23T03:56:24;15.10;99.90
2212;DHT22;48849;48.758;9.158;2022-10-23T03:58:51;15.10;99.90
2212;DHT22;48849;48.758;9.158;2022-10-23T04:01:18;15.80;99.90
2212;DHT22;48849;48.758;9.158;2022-10-23T04:03:45;17.30;99.90
2212;DHT22;48849;48.758;9.158;2022-10-23T04:06:11;17.00;99.90
2212;DHT22;48849;48.758;9.158;2022-10-23T04:08:38;16.20;99.90
2212;DHT22;48849;48.758;9.158;2022-10-23T04:11:06;15.10;99.90
2212;DHT22;48849;48.758;9.158;2022-10-23T04:13:33;15.10;99.90
2212;DHT22;48849;48.758;9.158;2022-10-23T04:16:00;16.40;99.90
2212;DHT22;48849;48.758;9.158;2022-10-23T04:18:26;16.40;99.90
2212;DHT22;48849;48.758;9.158;2022-10-23T04:20:53;16.40;99.90
2212;DHT22;48849;48.758;9.158;2022-10-23T04:23:20;15.00;99.90
2212;DHT22;48849;48.758;9.158;2022-10-23T04:25:46;15.00;99.90
2212;DHT22;48849;48.758;9.158;2022-10-23T04:28:14;15.00;99.90
2212;DHT22;48849;48.758;9.158;2022-10-23T04:30:41;15.00;99.90
2212;DHT22;48849;48.758;9.158;2022-10-23T04:33:08;16.10;99.90
2212;DHT22;48849;48.758;9.158;2022-10-23T04:35:35;16.30;99.90
2212;DHT22;48849;48.758;9.158;2022-10-23T04:38:01;15.00;99.90
2212;DHT22;48849;48.758;9.158;2022-10-23T04:40:28;17.80;99.90
2212;DHT22;48849;48.758;9.158;2022-10-23T04:42:55;15.00;99.90
2212;DHT22;48849;48.758;9.158;2022-10-23T04:45:23;15.00;99.90
2212;DHT22;48849;48.758;9.158;2022-10-23T04:47:50;15.50;99.90
2212;DHT22;48849;48.758;9.158;2022-10-23T04:50:18;16.40;99.90
2212;DHT22;48849;48.758;9.158;2022-10-23T04:52:45;15.00;99.90
2212;DHT22;48849;48.758;9.158;2022-10-23T04:55:11;16.80;99.90
2212;DHT22;48849;48.758;9.158;2022-10-23T04:57:38;16.40;99.90
2212;DHT22;48849;48.758;9.158;2022-10-23T05:00:09;15.10;99.90
2212;DHT22;48849;48.758;9.158;2022-10-23T05:02:38;15.00;99.90
2212;DHT22;48849;48.758;9.158;2022-10-23T05:05:06;15.00;99.90
2212;DHT22;48849;48.758;9.158;2022-10-23T05:07:34;15.00;99.90
2212;DHT22;48849;48.758;9.158;2022-10-23T05:10:01;16.20;99.90
2212;DHT22;48849;48.758;9.158;2022-10-23T05:12:28;16.90;99.90
2212;DHT22;48849;48.758;9.158;2022-10-23T05:14:55;17.60;99.90
2212;DHT22;48849;48.758;9.158;2022-10-23T05:17:24;15.50;99.90
2212;DHT22;48849;48.758;9.158;2022-10-23T05:19:55;15.00;99.90
2212;DHT22;48849;48.758;9.158;2022-10-23T05:22:24;15.00;99.90
2212;DHT22;48849;48.758;9.158;2022-10-23T05:24:53;15.00;99.90
2212;DHT22;48849;48.758;9.158;2022-10-23T05:27:20;15.50;99.90
2212;DHT22;48849;48.758;9.158;2022-10-23T05:29:46;16.70;99.90
2212;DHT22;48849;48.758;9.158;2022-10-23T05:32:14;16.20;99.90
2212;DHT22;48849;48.758;9.158;2022-10-23T05:34:42;15.00;99.90
2212;DHT22;48849;48.758;9.158;2022-10-23T05:37:13;17.10;99.90
2212;DHT22;48849;48.758;9.158;2022-10-23T05:39:41;16.20;99.90
2212;DHT22;48849;48.758;9.158;2022-10-23T05:42:08;15.60;99.90
2212;DHT22;48849;48.758;9.158;2022-10-23T05:44:35;15.10;99.90
2212;DHT22;48849;48.758;9.158;2022-10-23T05:47:02;15.10;99.90
2212;DHT22;48849;48.758;9.158;2022-10-23T05:49:29;15.00;99.90
2212;DHT22;48849;48.758;9.158;2022-10-23T05:51:55;16.40;99.90
2212;DHT22;48849;48.758;9.158;2022-10-23T05:54:23;16.50;99.90
2212;DHT22;48849;48.758;9.158;2022-10-23T05:56:50;15.10;99.90
2212;DHT22;48849;48.758;9.158;2022-10-23T05:59:17;15.10;99.90
2212;DHT22;48849;48.758;9.158;2022-10-23T06:01:44;16.00;99.90
2212;DHT22;48849;48.758;9.158;2022-10-23T06:04:11;15.10;99.90
2212;DHT22;48849;48.758;9.158;2022-10-23T06:06:37;15.10;99.90
2212;DHT22;48849;48.758;9.158;2022-10-23T06:09:04;15.10;99.90
2212;DHT22;48849;48.758;9.158;2022-10-23T06:11:32;15.10;99.90
2212;DHT22;48849;48.758;9.158;2022-10-23T06:13:59;15.10;99.90
2212;DHT22;48849;48.758;9.158;2022-10-23T06:16:26;15.10;99.90
2212;DHT22;48849;48.758;9.158;2022-10-23T06:18:53;15.10;99.90
2212;DHT22;48849;48.758;9.158;2022-10-23T06:21:20;15.80;99.90
2212;DHT22;48849;48.758;9.158;2022-10-23T06:23:47;15.10;99.90
2212;DHT22;48849;48.758;9.158;2022-10-23T06:26:15;15.20;99.90
2212;DHT22;48849;48.758;9.158;2022-10-23T06:28:44;16.80;99.90
2212;DHT22;48849;48.758;9.158;2022-10-23T06:31:12;15.20;99.90
2212;DHT22;48849;48.758;9.158;2022-10-23T06:33:39;16.80;99.90
2212;DHT22;48849;48.758;9.158;2022-10-23T06:36:07;15.20;99.90
2212;DHT22;48849;48.758;9.158;2022-10-23T06:38:35;15.20;99.90
2212;DHT22;48849;48.758;9.158;2022-10-23T06:41:05;15.20;99.90
2212;DHT22;48849;48.758;9.158;2022-10-23T06:43:32;15.70;99.90
2212;DHT22;48849;48.758;9.158;2022-10-23T06:46:01;15.30;99.90
2212;DHT22;48849;48.758;9.158;2022-10-23T06:48:28;17.20;99.90
2212;DHT22;48849;48.758;9.158;2022-10-23T06:50:55;15.30;99.90
2212;DHT22;48849;48.758;9.158;2022-10-23T06:53:22;16.30;99.90
2212;DHT22;48849;48.758;9.158;2022-10-23T06:55:49;16.40;99.90
2212;DHT22;48849;48.758;9.158;2022-10-23T06:58:16;16.90;99.90
2212;DHT22;48849;48.758;9.158;2022-10-23T07:00:43;15.40;99.90
2212;DHT22;48849;48.758;9.158;2022-10-23T07:03:11;15.40;99.90
2212;DHT22;48849;48.758;9.158;2022-10-23T07:05:38;15.40;99.90
2212;DHT22;48849;48.758;9.158;2022-10-23T07:08:05;15.40;99.90
2212;DHT22;48849;48.758;9.158;2022-10-23T07:10:33;15.50;99.90
2212;DHT22;48849;48.758;9.158;2022-10-23T07:13:00;15.50;99.90
2212;DHT22;48849;48.758;9.158;2022-10-23T07:15:28;15.50;99.90
2212;DHT22;48849;48.758;9.158;2022-10-23T07:17:55;15.50;99.90
2212;DHT22;48849;48.758;9.158;2022-10-23T07:20:23;16.50;99.90
2212;DHT22;48849;48.758;9.158;2022-10-23T07:22:51;15.60;99.90
2212;DHT22;48849;48.758;9.158;2022-10-23T07:25:18;15.60;99.90
2212;DHT22;48849;48.758;9.158;2022-10-23T07:30:13;15.60;99.90
2212;DHT22;48849;48.758;9.158;2022-10-23T07:32:40;15.60;99.90
2212;DHT22;48849;48.758;9.158;2022-10-23T07:35:08;15.70;99.90
2212;DHT22;48849;48.758;9.158;2022-10-23T07:37:37;15.60;99.90
2212;DHT22;48849;48.758;9.158;2022-10-23T07:40:04;15.70;99.90
2212;DHT22;48849;48.758;9.158;2022-10-23T07:42:31;15.60;99.90
2212;DHT22;48849;48.758;9.158;2022-10-23T07:44:58;16.10;99.90
2212;DHT22;48849;48.758;9.158;2022-10-23T07:47:25;17.10;99.90
2212;DHT22;48849;48.758;9.158;2022-10-23T07:49:52;18.00;99.90
2212;DHT22;48849;48.758;9.158;2022-10-23T07:52:18;18.30;99.90
2212;DHT22;48849;48.758;9.158;2022-10-23T07:54:49;15.80;99.90
2212;DHT22;48849;48.758;9.158;2022-10-23T07:57:16;15.80;99.90
2212;DHT22;48849;48.758;9.158;2022-10-23T07:59:43;17.90;99.90
2212;DHT22;48849;48.758;9.158;2022-10-23T08:02:10;17.20;99.90
2212;DHT22;48849;48.758;9.158;2022-10-23T08:04:37;16.80;99.90
2212;DHT22;48849;48.758;9.158;2022-10-23T08:07:04;17.30;99.90
2212;DHT22;48849;48.758;9.158;2022-10-23T08:12:00;15.90;99.90
2212;DHT22;48849;48.758;9.158;2022-10-23T08:14:27;16.00;99.90
2212;DHT22;48849;48.758;9.158;2022-10-23T08:16:54;16.00;99.90
2212;DHT22;48849;48.758;9.158;2022-10-23T08:19:20;16.00;99.90
2212;DHT22;48849;48.758;9.158;2022-10-23T08:21:47;17.60;99.90
2212;DHT22;48849;48.758;9.158;2022-10-23T08:26:42;16.00;99.90
2212;DHT22;48849;48.758;9.158;2022-10-23T08:29:10;16.10;99.90
2212;DHT22;48849;48.758;9.158;2022-10-23T08:34:04;16.10;99.90
2212;DHT22;48849;48.758;9.158;2022-10-23T08:36:31;18.60;99.90
2212;DHT22;48849;48.758;9.158;2022-10-23T08:38:58;16.20;99.90
2212;DHT22;48849;48.758;9.158;2022-10-23T08:41:28;17.40;99.90
2212;DHT22;48849;48.758;9.158;2022-10-23T08:44:01;17.30;99.90
2212;DHT22;48849;48.758;9.158;2022-10-23T08:46:33;16.50;99.90
2212;DHT22;48849;48.758;9.158;2022-10-23T08:49:14;16.90;99.90
2212;DHT22;48849;48.758;9.158;2022-10-23T08:51:45;19.00;99.90
2212;DHT22;48849;48.758;9.158;2022-10-23T08:54:14;16.30;99.90
2212;DHT22;48849;48.758;9.158;2022-10-23T08:56:46;16.30;99.90
2212;DHT22;48849;48.758;9.158;2022-10-23T08:59:18;16.40;99.90
2212;DHT22;48849;48.758;9.158;2022-10-23T09:01:52;17.40;99.90
2212;DHT22;48849;48.758;9.158;2022-10-23T09:04:21;16.30;99.90
2212;DHT22;48849;48.758;9.158;2022-10-23T09:06:53;16.40;99.90
2212;DHT22;48849;48.758;9.158;2022-10-23T09:09:41;18.80;99.90
2212;DHT22;48849;48.758;9.158;2022-10-23T09:12:14;16.40;99.90
2212;DHT22;48849;48.758;9.158;2022-10-23T09:15:14;17.90;99.90
2212;DHT22;48849;48.758;9.158;2022-10-23T09:17:45;16.40;99.90
2212;DHT22;48849;48.758;9.158;2022-10-23T09:20:18;16.40;99.90
2212;DHT22;48849;48.758;9.158;2022-10-23T09:22:47;16.40;99.90
2212;DHT22;48849;48.758;9.158;2022-10-23T09:25:19;16.40;99.90
2212;DHT22;48849;48.758;9.158;2022-10-23T09:27:47;16.50;99.90
2212;DHT22;48849;48.758;9.158;2022-10-23T09:30:25;17.20;99.90
2212;DHT22;48849;48.758;9.158;2022-10-23T09:32:53;18.70;99.90
2212;DHT22;48849;48.758;9.158;2022-10-23T09:35:21;17.40;99.90
2212;DHT22;48849;48.758;9.158;2022-10-23T09:37:49;16.60;99.90
2212;DHT22;48849;48.758;9.158;2022-10-23T09:40:22;16.90;99.90
2212;DHT22;48849;48.758;9.158;2022-10-23T09:42:53;16.60;99.90
2212;DHT22;48849;48.758;9.158;2022-10-23T09:45:22;16.60;99.90
2212;DHT22;48849;48.758;9.158;2022-10-23T09:47:49;16.70;99.90
2212;DHT22;48849;48.758;9.158;2022-10-23T09:50:19;18.20;99.90
2212;DHT22;48849;48.758;9.158;2022-10-23T09:52:49;16.70;99.90
2212;DHT22;48849;48.758;9.158;2022-10-23T09:55:19;16.80;99.90
2212;DHT22;48849;48.758;9.158;2022-10-23T09:57:48;17.00;99.90
2212;DHT22;48849;48.758;9.158;2022-10-23T10:00:18;16.80;99.90
2212;DHT22;48849;48.758;9.158;2022-10-23T10:02:55;16.80;99.90
2212;DHT22;48849;48.758;9.158;2022-10-23T10:05:25;16.90;99.90
2212;DHT22;48849;48.758;9.158;2022-10-23T10:07:55;16.90;99.90
2212;DHT22;48849;48.758;9.158;2022-10-23T10:10:23;17.00;99.90
2212;DHT22;48849;48.758;9.158;2022-10-23T10:12:53;18.20;99.90
2212;DHT22;48849;48.758;9.158;2022-10-23T10:15:26;17.00;99.90
2212;DHT22;48849;48.758;9.158;2022-10-23T10:18:05;17.00;99.90
2212;DHT22;48849;48.758;9.158;2022-10-23T10:20:59;17.10;99.90
2212;DHT22;48849;48.758;9.158;2022-10-23T10:23:33;17.10;99.90
2212;DHT22;48849;48.758;9.158;2022-10-23T10:26:13;17.50;99.90
2212;DHT22;48849;48.758;9.158;2022-10-23T10:28:52;17.20;99.90
2212;DHT22;48849;48.758;9.158;2022-10-23T10:31:28;17.20;99.90
2212;DHT22;48849;48.758;9.158;2022-10-23T10:34:04;17.30;99.90
2212;DHT22;48849;48.758;9.158;2022-10-23T10:36:48;17.30;99.90
2212;DHT22;48849;48.758;9.158;2022-10-23T10:39:23;17.30;99.90
2212;DHT22;48849;48.758;9.158;2022-10-23T10:42:02;17.30;99.90
2212;DHT22;48849;48.758;9.158;2022-10-23T10:44:44;17.40;99.90
2212;DHT22;48849;48.758;9.158;2022-10-23T10:47:17;17.40;99.90
2212;DHT22;48849;48.758;9.158;2022-10-23T10:49:54;17.40;99.90
2212;DHT22;48849;48.758;9.158;2022-10-23T10:52:31;17.40;99.90
2212;DHT22;48849;48.758;9.158;2022-10-23T10:55:02;17.50;99.90
2212;DHT22;48849;48.758;9.158;2022-10-23T10:57:40;17.50;99.90
2212;DHT22;48849;48.758;9.158;2022-10-23T11:00:13;18.40;99.90
2212;DHT22;48849;48.758;9.158;2022-10-23T11:02:45;17.50;99.90
2212;DHT22;48849;48.758;9.158;2022-10-23T11:05:21;17.50;99.90
2212;DHT22;48849;48.758;9.158;2022-10-23T11:07:55;17.50;99.90
2212;DHT22;48849;48.758;9.158;2022-10-23T11:10:24;17.50;99.90
2212;DHT22;48849;48.758;9.158;2022-10-23T11:12:52;17.60;99.90
2212;DHT22;48849;48.758;9.158;2022-10-23T11:15:22;17.60;99.90
2212;DHT22;48849;48.758;9.158;2022-10-23T11:17:53;17.70;99.90
2212;DHT22;48849;48.758;9.158;2022-10-23T11:20:51;17.70;99.90
2212;DHT22;48849;48.758;9.158;2022-10-23T11:24:04;17.70;99.90
2212;DHT22;48849;48.758;9.158;2022-10-23T11:26:45;17.70;99.90
2212;DHT22;48849;48.758;9.158;2022-10-23T11:29:33;17.70;99.90
2212;DHT22;48849;48.758;9.158;2022-10-23T11:32:19;17.70;99.90
2212;DHT22;48849;48.758;9.158;2022-10-23T11:35:07;17.60;99.90
2212;DHT22;48849;48.758;9.158;2022-10-23T11:37:39;17.70;99.90
2212;DHT22;48849;48.758;9.158;2022-10-23T11:40:20;17.70;99.90
2212;DHT22;48849;48.758;9.158;2022-10-23T11:42:49;17.60;99.90
2212;DHT22;48849;48.758;9.158;2022-10-23T11:45:27;17.70;99.90
2212;DHT22;48849;48.758;9.158;2022-10-23T11:47:59;17.60;99.90
2212;DHT22;48849;48.758;9.158;2022-10-23T11:50:29;17.70;99.90
2212;DHT22;48849;48.758;9.158;2022-10-23T11:53:02;17.70;99.90
2212;DHT22;48849;48.758;9.158;2022-10-23T11:55:33;17.60;99.90
2212;DHT22;48849;48.758;9.158;2022-10-23T11:58:14;17.70;99.90
2212;DHT22;48849;48.758;9.158;2022-10-23T12:00:52;17.70;99.90
2212;DHT22;48849;48.758;9.158;2022-10-23T12:03:23;17.70;99.90
2212;DHT22;48849;48.758;9.158;2022-10-23T12:05:58;17.70;99.90
2212;DHT22;48849;48.758;9.158;2022-10-23T12:08:27;17.70;99.90
2212;DHT22;48849;48.758;9.158;2022-10-23T12:10:56;17.80;99.90
2212;DHT22;48849;48.758;9.158;2022-10-23T12:13:30;17.80;99.90
2212;DHT22;48849;48.758;9.158;2022-10-23T12:15:57;19.00;99.90
2212;DHT22;48849;48.758;9.158;2022-10-23T12:18:24;17.90;99.90
2212;DHT22;48849;48.758;9.158;2022-10-23T12:20:53;18.00;99.90
2212;DHT22;48849;48.758;9.158;2022-10-23T12:23:39;18.00;99.90
2212;DHT22;48849;48.758;9.158;2022-10-23T12:26:18;17.90;99.90
2212;DHT22;48849;48.758;9.158;2022-10-23T12:28:52;17.90;99.90
2212;DHT22;48849;48.758;9.158;2022-10-23T12:31:27;18.00;99.90
2212;DHT22;48849;48.758;9.158;2022-10-23T12:34:02;18.00;99.90
2212;DHT22;48849;48.758;9.158;2022-10-23T12:36:55;18.00;99.90
2212;DHT22;48849;48.758;9.158;2022-10-23T12:39:28;18.00;99.90
2212;DHT22;48849;48.758;9.158;2022-10-23T12:41:57;18.00;99.90
2212;DHT22;48849;48.758;9.158;2022-10-23T12:44:25;18.00;99.90
2212;DHT22;48849;48.758;9.158;2022-10-23T12:46:55;18.20;99.90
2212;DHT22;48849;48.758;9.158;2022-10-23T12:49:23;19.40;99.90
2212;DHT22;48849;48.758;9.158;2022-10-23T12:51:54;18.00;99.90
2212;DHT22;48849;48.758;9.158;2022-10-23T12:54:21;18.00;99.90
2212;DHT22;48849;48.758;9.158;2022-10-23T12:56:48;18.10;99.90
2212;DHT22;48849;48.758;9.158;2022-10-23T12:59:18;18.20;99.90
2212;DHT22;48849;48.758;9.158;2022-10-23T13:01:46;18.10;99.90
2212;DHT22;48849;48.758;9.158;2022-10-23T13:04:21;18.10;99.90
2212;DHT22;48849;48.758;9.158;2022-10-23T13:06:49;18.20;99.90
2212;DHT22;48849;48.758;9.158;2022-10-23T13:09:22;18.10;99.90
2212;DHT22;48849;48.758;9.158;2022-10-23T13:11:50;18.10;99.90
2212;DHT22;48849;48.758;9.158;2022-10-23T13:14:31;18.10;99.90
2212;DHT22;48849;48.758;9.158;2022-10-23T13:16:59;18.10;99.90
2212;DHT22;48849;48.758;9.158;2022-10-23T13:19:26;18.10;99.90
2212;DHT22;48849;48.758;9.158;2022-10-23T13:21:53;18.10;99.90
2212;DHT22;48849;48.758;9.158;2022-10-23T13:24:21;18.10;99.90
2212;DHT22;48849;48.758;9.158;2022-10-23T13:26:50;18.20;99.90
2212;DHT22;48849;48.758;9.158;2022-10-23T13:29:20;18.10;99.90
2212;DHT22;48849;48.758;9.158;2022-10-23T13:31:49;18.10;99.90
2212;DHT22;48849;48.758;9.158;2022-10-23T13:34:24;18.10;99.90
2212;DHT22;48849;48.758;9.158;2022-10-23T13:36:58;18.00;99.90
2212;DHT22;48849;48.758;9.158;2022-10-23T13:39:26;18.00;99.90
2212;DHT22;48849;48.758;9.158;2022-10-23T13:41:54;18.00;99.90
2212;DHT22;48849;48.758;9.158;2022-10-23T13:44:22;18.00;99.90
2212;DHT22;48849;48.758;9.158;2022-10-23T13:46:50;18.00;99.90
2212;DHT22;48849;48.758;9.158;2022-10-23T13:49:18;18.00;99.90
2212;DHT22;48849;48.758;9.158;2022-10-23T13:51:47;18.90;99.90
2212;DHT22;48849;48.758;9.158;2022-10-23T13:54:16;18.00;99.90
2212;DHT22;48849;48.758;9.158;2022-10-23T13:56:44;18.00;99.90
2212;DHT22;48849;48.758;9.158;2022-10-23T13:59:11;18.00;99.90
2212;DHT22;48849;48.758;9.158;2022-10-23T14:01:38;18.00;99.90
2212;DHT22;48849;48.758;9.158;2022-10-23T14:04:06;18.00;99.90
2212;DHT22;48849;48.758;9.158;2022-10-23T14:06:34;17.90;99.90
2212;DHT22;48849;48.758;9.158;2022-10-23T14:09:13;17.90;99.90
2212;DHT22;48849;48.758;9.158;2022-10-23T14:11:40;17.90;99.90
2212;DHT22;48849;48.758;9.158;2022-10-23T14:14:07;17.90;99.90
2212;DHT22;48849;48.758;9.158;2022-10-23T14:16:34;17.90;99.90
2212;DHT22;48849;48.758;9.158;2022-10-23T14:19:01;17.90;99.90
2212;DHT22;48849;48.758;9.158;2022-10-23T14:21:29;17.90;99.90
2212;DHT22;48849;48.758;9.158;2022-10-23T14:23:56;17.90;99.90
2212;DHT22;48849;48.758;9.158;2022-10-23T14:26:24;17.90;99.90
2212;DHT22;48849;48.758;9.158;2022-10-23T14:28:52;17.90;99.90
2212;DHT22;48849;48.758;9.158;2022-10-23T14:31:20;18.00;99.90
2212;DHT22;48849;48.758;9.158;2022-10-23T14:33:51;17.90;99.90
2212;DHT22;48849;48.758;9.158;2022-10-23T14:36:18;17.90;99.90
2212;DHT22;48849;48.758;9.158;2022-10-23T14:38:47;17.90;99.90
2212;DHT22;48849;48.758;9.158;2022-10-23T14:41:15;17.90;99.90
2212;DHT22;48849;48.758;9.158;2022-10-23T14:43:43;20.10;99.90
2212;DHT22;48849;48.758;9.158;2022-10-23T14:46:11;17.90;99.90
2212;DHT22;48849;48.758;9.158;2022-10-23T14:48:38;17.90;99.90
2212;DHT22;48849;48.758;9.158;2022-10-23T14:51:06;17.90;99.90
2212;DHT22;48849;48.758;9.158;2022-10-23T14:53:33;17.90;99.90
2212;DHT22;48849;48.758;9.158;2022-10-23T14:56:02;17.90;99.90
2212;DHT22;48849;48.758;9.158;2022-10-23T14:58:29;17.90;99.90
2212;DHT22;48849;48.758;9.158;2022-10-23T15:00:56;18.80;99.90
2212;DHT22;48849;48.758;9.158;2022-10-23T15:03:23;17.90;99.90
2212;DHT22;48849;48.758;9.158;2022-10-23T15:05:50;17.90;99.90
2212;DHT22;48849;48.758;9.158;2022-10-23T15:08:17;17.90;99.90
2212;DHT22;48849;48.758;9.158;2022-10-23T15:10:44;19.60;99.90
2212;DHT22;48849;48.758;9.158;2022-10-23T15:13:12;19.50;99.90
2212;DHT22;48849;48.758;9.158;2022-10-23T15:15:39;17.90;99.90
2212;DHT22;48849;48.758;9.158;2022-10-23T15:18:06;17.90;99.90
2212;DHT22;48849;48.758;9.158;2022-10-23T15:20:32;17.90;99.90
2212;DHT22;48849;48.758;9.158;2022-10-23T15:22:59;17.90;99.90
2212;DHT22;48849;48.758;9.158;2022-10-23T15:25:27;18.00;99.90
2212;DHT22;48849;48.758;9.158;2022-10-23T15:27:54;17.90;99.90
2212;DHT22;48849;48.758;9.158;2022-10-23T15:30:22;18.00;99.90
2212;DHT22;48849;48.758;9.158;2022-10-23T15:32:49;17.90;99.90
2212;DHT22;48849;48.758;9.158;2022-10-23T15:35:15;18.00;99.90
2212;DHT22;48849;48.758;9.158;2022-10-23T15:37:42;19.50;99.90
2212;DHT22;48849;48.758;9.158;2022-10-23T15:40:09;17.90;99.90
2212;DHT22;48849;48.758;9.158;2022-10-23T15:42:36;17.90;99.90
2212;DHT22;48849;48.758;9.158;2022-10-23T15:45:03;17.90;99.90
2212;DHT22;48849;48.758;9.158;2022-10-23T15:47:32;17.90;99.90
2212;DHT22;48849;48.758;9.158;2022-10-23T15:49:58;17.90;99.90
2212;DHT22;48849;48.758;9.158;2022-10-23T15:52:25;17.90;99.90
2212;DHT22;48849;48.758;9.158;2022-10-23T15:54:52;17.90;99.90
2212;DHT22;48849;48.758;9.158;2022-10-23T15:57:18;17.90;99.90
2212;DHT22;48849;48.758;9.158;2022-10-23T15:59:45;17.90;99.90
2212;DHT22;48849;48.758;9.158;2022-10-23T16:02:12;17.90;99.90
2212;DHT22;48849;48.758;9.158;2022-10-23T16:04:41;17.90;99.90
2212;DHT22;48849;48.758;9.158;2022-10-23T16:07:07;17.90;99.90
2212;DHT22;48849;48.758;9.158;2022-10-23T16:09:34;17.90;99.90
2212;DHT22;48849;48.758;9.158;2022-10-23T16:12:01;17.90;99.90
2212;DHT22;48849;48.758;9.158;2022-10-23T16:14:28;17.90;99.90
2212;DHT22;48849;48.758;9.158;2022-10-23T16:16:55;17.90;99.90